createdAt,value
2019-03-27T00:00:07.966Z,1003.62
2019-03-27T00:01:07.952Z,1003.60
2019-03-27T00:02:07.943Z,1003.59
2019-03-27T00:03:07.931Z,1003.63
2019-03-27T00:04:07.958Z,1003.60
2019-03-27T00:05:07.915Z,1003.65
2019-03-27T00:06:07.898Z,1003.72
2019-03-27T00:07:07.886Z,1003.66
2019-03-27T00:08:07.868Z,1003.64
2019-03-27T00:09:07.862Z,1003.62
2019-03-27T00:10:07.860Z,1003.66
2019-03-27T00:11:07.838Z,1003.72
2019-03-27T00:12:13.912Z,1003.69
2019-03-27T00:13:07.814Z,1003.67
2019-03-27T00:14:07.803Z,1003.66
2019-03-27T00:15:13.233Z,1003.73
2019-03-27T00:16:08.778Z,1003.70
2019-03-27T00:17:07.769Z,1003.73
2019-03-27T00:18:07.754Z,1003.67
2019-03-27T00:19:07.750Z,1003.70
2019-03-27T00:20:07.741Z,1003.70
2019-03-27T00:21:07.755Z,1003.66
2019-03-27T00:22:07.707Z,1003.70
2019-03-27T00:23:07.706Z,1003.70
2019-03-27T00:24:07.687Z,1003.71
2019-03-27T00:25:07.674Z,1003.72
2019-03-27T00:26:07.661Z,1003.77
2019-03-27T00:27:07.656Z,1003.78
2019-03-27T00:28:07.678Z,1003.80
2019-03-27T00:29:07.634Z,1003.83
2019-03-27T00:30:07.611Z,1003.85
2019-03-27T00:31:07.607Z,1003.84
2019-03-27T00:32:07.591Z,1003.83
2019-03-27T00:33:07.579Z,1003.85
2019-03-27T00:34:07.574Z,1003.85
2019-03-27T00:35:07.554Z,1003.84
2019-03-27T00:36:07.541Z,1003.87
2019-03-27T00:37:07.535Z,1003.82
2019-03-27T00:38:07.556Z,1003.85
2019-03-27T00:39:07.512Z,1003.89
2019-03-27T00:40:07.522Z,1003.86
2019-03-27T00:41:07.484Z,1003.87
2019-03-27T00:42:07.478Z,1003.88
2019-03-27T00:43:07.467Z,1003.87
2019-03-27T00:44:13.905Z,1003.88
2019-03-27T00:45:07.440Z,1003.87
2019-03-27T00:46:07.433Z,1003.83
2019-03-27T00:47:07.412Z,1003.83
2019-03-27T00:48:07.403Z,1003.82
2019-03-27T00:49:07.390Z,1003.81
2019-03-27T00:50:07.392Z,1003.81
2019-03-27T00:51:07.369Z,1003.85
2019-03-27T00:52:07.366Z,1003.81
2019-03-27T00:53:07.346Z,1003.89
2019-03-27T00:54:07.337Z,1003.89
2019-03-27T00:55:07.377Z,1003.88
2019-03-27T00:56:07.321Z,1003.88
2019-03-27T00:57:07.314Z,1003.91
2019-03-27T00:58:07.284Z,1003.91
2019-03-27T00:59:07.276Z,1003.91
2019-03-27T01:00:07.265Z,1003.95
2019-03-27T01:01:07.251Z,1004.00
2019-03-27T01:02:07.280Z,1004.01
2019-03-27T01:03:07.236Z,1003.96
2019-03-27T01:04:07.224Z,1004.02
2019-03-27T01:05:07.212Z,1004.01
2019-03-27T01:06:07.195Z,1004.04
2019-03-27T01:07:07.188Z,1004.06
2019-03-27T01:08:07.208Z,1004.02
2019-03-27T01:09:07.157Z,1003.96
2019-03-27T01:10:07.153Z,1004.06
2019-03-27T01:11:07.210Z,1004.08
2019-03-27T01:12:07.129Z,1004.04
2019-03-27T01:13:07.114Z,1004.06
2019-03-27T01:14:07.134Z,1004.05
2019-03-27T01:15:07.091Z,1004.04
2019-03-27T01:16:13.980Z,1004.04
2019-03-27T01:17:07.069Z,1004.05
2019-03-27T01:18:07.056Z,1004.05
2019-03-27T01:19:07.041Z,1004.04
2019-03-27T01:20:07.039Z,1004.09
2019-03-27T01:21:07.025Z,1004.02
2019-03-27T01:22:07.010Z,1004.09
2019-03-27T01:23:07.001Z,1004.06
2019-03-27T01:24:06.987Z,1004.06
2019-03-27T01:25:07.007Z,1004.07
2019-03-27T01:26:06.966Z,1004.13
2019-03-27T01:27:06.953Z,1004.08
2019-03-27T01:28:06.945Z,1004.09
2019-03-27T01:29:06.925Z,1004.04
2019-03-27T01:30:06.914Z,1004.12
2019-03-27T01:31:06.914Z,1004.13
2019-03-27T01:32:06.894Z,1004.11
2019-03-27T01:33:06.884Z,1004.14
2019-03-27T01:34:06.865Z,1004.14
2019-03-27T01:35:06.904Z,1004.16
2019-03-27T01:36:06.853Z,1004.19
2019-03-27T01:37:06.907Z,1004.12
2019-03-27T01:38:06.825Z,1004.16
2019-03-27T01:39:06.815Z,1004.23
2019-03-27T01:40:06.801Z,1004.19
2019-03-27T01:41:06.806Z,1004.20
2019-03-27T01:42:06.774Z,1004.19
2019-03-27T01:43:06.761Z,1004.20
2019-03-27T01:44:06.752Z,1004.23
2019-03-27T01:45:06.743Z,1004.16
2019-03-27T01:46:06.727Z,1004.19
2019-03-27T01:47:06.723Z,1004.22
2019-03-27T01:48:12.800Z,1004.17
2019-03-27T01:49:06.705Z,1004.26
2019-03-27T01:50:06.680Z,1004.24
2019-03-27T01:51:06.671Z,1004.26
2019-03-27T01:52:08.140Z,1004.28
2019-03-27T01:53:06.652Z,1004.29
2019-03-27T01:54:06.640Z,1004.29
2019-03-27T01:55:06.624Z,1004.27
2019-03-27T01:56:06.622Z,1004.32
2019-03-27T01:57:06.602Z,1004.34
2019-03-27T01:58:06.605Z,1004.28
2019-03-27T01:59:06.582Z,1004.28
2019-03-27T02:00:06.565Z,1004.35
2019-03-27T02:01:06.553Z,1004.39
2019-03-27T02:02:06.569Z,1004.35
2019-03-27T02:03:06.536Z,1004.41
2019-03-27T02:04:06.567Z,1004.39
2019-03-27T02:05:06.510Z,1004.36
2019-03-27T02:06:06.496Z,1004.34
2019-03-27T02:07:06.486Z,1004.43
2019-03-27T02:08:06.473Z,1004.43
2019-03-27T02:09:06.465Z,1004.46
2019-03-27T02:10:06.461Z,1004.39
2019-03-27T02:11:06.440Z,1004.44
2019-03-27T02:12:06.428Z,1004.47
2019-03-27T02:13:06.428Z,1004.46
2019-03-27T02:14:06.408Z,1004.51
2019-03-27T02:15:06.398Z,1004.51
2019-03-27T02:16:07.489Z,1004.57
2019-03-27T02:17:06.370Z,1004.51
2019-03-27T02:18:06.362Z,1004.56
2019-03-27T02:19:06.345Z,1004.57
2019-03-27T02:20:13.041Z,1004.57
2019-03-27T02:21:06.326Z,1004.56
2019-03-27T02:22:06.312Z,1004.57
2019-03-27T02:23:06.302Z,1004.64
2019-03-27T02:24:06.286Z,1004.67
2019-03-27T02:25:06.275Z,1004.66
2019-03-27T02:26:06.287Z,1004.73
2019-03-27T02:27:06.256Z,1004.69
2019-03-27T02:28:06.245Z,1004.74
2019-03-27T02:29:06.231Z,1004.70
2019-03-27T02:30:06.227Z,1004.79
2019-03-27T02:31:06.214Z,1004.79
2019-03-27T02:32:06.241Z,1004.76
2019-03-27T02:33:06.182Z,1004.73
2019-03-27T02:34:06.177Z,1004.71
2019-03-27T02:35:06.166Z,1004.66
2019-03-27T02:36:06.166Z,1004.71
2019-03-27T02:37:06.138Z,1004.72
2019-03-27T02:38:06.135Z,1004.78
2019-03-27T02:39:06.114Z,1004.76
2019-03-27T02:40:06.109Z,1004.75
2019-03-27T02:41:06.098Z,1004.76
2019-03-27T02:42:06.081Z,1004.78
2019-03-27T02:43:06.111Z,1004.75
2019-03-27T02:44:06.058Z,1004.84
2019-03-27T02:45:06.050Z,1004.84
2019-03-27T02:46:23.303Z,1004.77
2019-03-27T02:47:07.026Z,1004.83
2019-03-27T02:48:06.023Z,1004.79
2019-03-27T02:49:06.046Z,1004.89
2019-03-27T02:50:05.991Z,1004.86
2019-03-27T02:51:05.985Z,1004.81
2019-03-27T02:52:12.358Z,1004.88
2019-03-27T02:53:05.957Z,1004.92
2019-03-27T02:54:05.938Z,1004.84
2019-03-27T02:55:05.960Z,1004.88
2019-03-27T02:56:06.062Z,1004.88
2019-03-27T02:57:05.912Z,1004.89
2019-03-27T02:58:05.903Z,1004.89
2019-03-27T02:59:05.880Z,1004.88
2019-03-27T03:00:05.875Z,1004.99
2019-03-27T03:01:05.865Z,1005.00
2019-03-27T03:02:05.854Z,1005.05
2019-03-27T03:03:05.841Z,1005.03
2019-03-27T03:04:05.830Z,1005.09
2019-03-27T03:05:05.820Z,1005.14
2019-03-27T03:06:05.934Z,1005.06
2019-03-27T03:07:05.794Z,1005.05
2019-03-27T03:08:05.778Z,1005.11
2019-03-27T03:09:05.770Z,1005.18
2019-03-27T03:10:05.755Z,1005.22
2019-03-27T03:11:05.748Z,1005.21
2019-03-27T03:12:05.768Z,1005.26
2019-03-27T03:13:05.725Z,1005.20
2019-03-27T03:14:05.717Z,1005.27
2019-03-27T03:15:05.698Z,1005.27
2019-03-27T03:16:05.683Z,1005.30
2019-03-27T03:17:05.674Z,1005.27
2019-03-27T03:18:05.677Z,1005.27
2019-03-27T03:19:05.652Z,1005.31
2019-03-27T03:20:05.639Z,1005.33
2019-03-27T03:21:05.633Z,1005.34
2019-03-27T03:22:05.614Z,1005.33
2019-03-27T03:23:05.612Z,1005.31
2019-03-27T03:24:11.987Z,1005.34
2019-03-27T03:25:05.582Z,1005.29
2019-03-27T03:26:05.567Z,1005.31
2019-03-27T03:27:05.567Z,1005.32
2019-03-27T03:28:05.577Z,1005.30
2019-03-27T03:29:05.538Z,1005.33
2019-03-27T03:30:05.530Z,1005.27
2019-03-27T03:31:05.512Z,1005.34
2019-03-27T03:32:05.504Z,1005.28
2019-03-27T03:33:05.488Z,1005.24
2019-03-27T03:34:05.473Z,1005.30
2019-03-27T03:35:05.470Z,1005.25
2019-03-27T03:36:05.453Z,1005.26
2019-03-27T03:37:05.444Z,1005.31
2019-03-27T03:38:05.501Z,1005.31
2019-03-27T03:39:05.425Z,1005.29
2019-03-27T03:40:05.417Z,1005.33
2019-03-27T03:41:05.436Z,1005.30
2019-03-27T03:42:05.386Z,1005.35
2019-03-27T03:43:05.376Z,1005.42
2019-03-27T03:44:05.364Z,1005.33
2019-03-27T03:45:05.352Z,1005.40
2019-03-27T03:46:05.345Z,1005.42
2019-03-27T03:47:05.394Z,1005.33
2019-03-27T03:48:05.311Z,1005.46
2019-03-27T03:49:05.301Z,1005.37
2019-03-27T03:50:05.289Z,1005.38
2019-03-27T03:51:05.281Z,1005.42
2019-03-27T03:52:05.270Z,1005.41
2019-03-27T03:53:05.265Z,1005.43
2019-03-27T03:54:05.242Z,1005.36
2019-03-27T03:55:05.235Z,1005.39
2019-03-27T03:56:11.313Z,1005.43
2019-03-27T03:57:05.213Z,1005.44
2019-03-27T03:58:05.207Z,1005.49
2019-03-27T03:59:05.188Z,1005.45
2019-03-27T04:00:05.170Z,1005.44
2019-03-27T04:01:05.166Z,1005.40
2019-03-27T04:02:05.149Z,1005.48
2019-03-27T04:03:05.175Z,1005.47
2019-03-27T04:04:05.126Z,1005.52
2019-03-27T04:05:05.119Z,1005.50
2019-03-27T04:06:05.107Z,1005.48
2019-03-27T04:07:05.096Z,1005.47
2019-03-27T04:08:05.079Z,1005.47
2019-03-27T04:09:05.086Z,1005.51
2019-03-27T04:10:05.077Z,1005.55
2019-03-27T04:11:05.048Z,1005.48
2019-03-27T04:12:05.041Z,1005.56
2019-03-27T04:13:05.025Z,1005.54
2019-03-27T04:14:05.011Z,1005.57
2019-03-27T04:15:04.998Z,1005.52
2019-03-27T04:16:05.000Z,1005.55
2019-03-27T04:17:16.901Z,1005.53
2019-03-27T04:18:05.964Z,1005.60
2019-03-27T04:19:04.956Z,1005.63
2019-03-27T04:20:04.981Z,1005.64
2019-03-27T04:21:04.935Z,1005.59
2019-03-27T04:22:04.919Z,1005.57
2019-03-27T04:23:04.911Z,1005.61
2019-03-27T04:24:04.908Z,1005.61
2019-03-27T04:25:04.881Z,1005.63
2019-03-27T04:26:10.420Z,1005.63
2019-03-27T04:27:05.860Z,1005.61
2019-03-27T04:28:11.245Z,1005.63
2019-03-27T04:29:04.845Z,1005.76
2019-03-27T04:30:04.826Z,1005.68
2019-03-27T04:31:04.823Z,1005.78
2019-03-27T04:32:04.804Z,1005.80
2019-03-27T04:33:04.810Z,1005.77
2019-03-27T04:34:04.780Z,1005.84
2019-03-27T04:35:04.769Z,1005.80
2019-03-27T04:36:04.802Z,1005.83
2019-03-27T04:37:04.746Z,1005.83
2019-03-27T04:38:04.731Z,1005.83
2019-03-27T04:39:04.721Z,1005.90
2019-03-27T04:40:04.708Z,1005.92
2019-03-27T04:41:04.693Z,1005.87
2019-03-27T04:42:04.702Z,1005.86
2019-03-27T04:43:04.677Z,1005.89
2019-03-27T04:44:04.668Z,1005.88
2019-03-27T04:45:04.664Z,1005.90
2019-03-27T04:46:04.645Z,1006.11
2019-03-27T04:47:04.632Z,1005.95
2019-03-27T04:48:04.637Z,1005.91
2019-03-27T04:49:07.648Z,1005.92
2019-03-27T04:50:04.592Z,1006.03
2019-03-27T04:51:04.579Z,1006.00
2019-03-27T04:52:04.569Z,1006.06
2019-03-27T04:53:04.554Z,1006.07
2019-03-27T04:54:04.581Z,1006.10
2019-03-27T04:55:04.536Z,1006.05
2019-03-27T04:56:04.523Z,1006.08
2019-03-27T04:57:04.515Z,1006.13
2019-03-27T04:58:04.497Z,1006.10
2019-03-27T04:59:04.489Z,1006.12
2019-03-27T05:00:11.018Z,1006.14
2019-03-27T05:01:04.466Z,1006.15
2019-03-27T05:02:06.663Z,1006.13
2019-03-27T05:03:04.443Z,1006.18
2019-03-27T05:04:04.427Z,1006.13
2019-03-27T05:05:04.425Z,1006.17
2019-03-27T05:06:04.405Z,1006.18
2019-03-27T05:07:04.399Z,1006.22
2019-03-27T05:08:04.391Z,1006.19
2019-03-27T05:09:04.374Z,1006.28
2019-03-27T05:10:04.368Z,1006.27
2019-03-27T05:11:04.387Z,1006.26
2019-03-27T05:12:04.342Z,1006.26
2019-03-27T05:13:04.328Z,1006.23
2019-03-27T05:14:04.316Z,1006.25
2019-03-27T05:15:04.304Z,1006.25
2019-03-27T05:16:04.295Z,1006.29
2019-03-27T05:17:04.296Z,1006.28
2019-03-27T05:18:04.271Z,1006.30
2019-03-27T05:19:04.255Z,1006.33
2019-03-27T05:20:04.244Z,1006.35
2019-03-27T05:21:04.239Z,1006.31
2019-03-27T05:22:04.218Z,1006.35
2019-03-27T05:23:04.248Z,1006.37
2019-03-27T05:24:04.204Z,1006.33
2019-03-27T05:25:04.196Z,1006.37
2019-03-27T05:26:04.176Z,1006.38
2019-03-27T05:27:04.166Z,1006.42
2019-03-27T05:28:04.152Z,1006.39
2019-03-27T05:29:04.152Z,1006.30
2019-03-27T05:30:04.126Z,1006.37
2019-03-27T05:31:04.116Z,1006.38
2019-03-27T05:32:10.203Z,1006.38
2019-03-27T05:33:04.134Z,1006.41
2019-03-27T05:34:04.109Z,1006.41
2019-03-27T05:35:04.077Z,1006.41
2019-03-27T05:36:04.066Z,1006.42
2019-03-27T05:37:04.053Z,1006.45
2019-03-27T05:38:04.038Z,1006.45
2019-03-27T05:39:04.065Z,1006.50
2019-03-27T05:40:04.013Z,1006.52
2019-03-27T05:41:04.003Z,1006.45
2019-03-27T05:42:03.992Z,1006.43
2019-03-27T05:43:04.033Z,1006.49
2019-03-27T05:44:03.969Z,1006.46
2019-03-27T05:45:03.999Z,1006.49
2019-03-27T05:46:03.995Z,1006.50
2019-03-27T05:47:03.934Z,1006.63
2019-03-27T05:48:03.927Z,1006.54
2019-03-27T05:49:03.919Z,1006.56
2019-03-27T05:50:03.903Z,1006.59
2019-03-27T05:51:03.907Z,1006.59
2019-03-27T05:52:03.881Z,1006.61
2019-03-27T05:53:03.872Z,1006.61
2019-03-27T05:54:03.860Z,1006.59
2019-03-27T05:55:03.846Z,1006.50
2019-03-27T05:56:03.878Z,1006.58
2019-03-27T05:57:03.828Z,1006.57
2019-03-27T05:58:03.816Z,1006.52
2019-03-27T05:59:03.797Z,1006.59
2019-03-27T06:00:03.800Z,1006.69
2019-03-27T06:01:03.776Z,1006.55
2019-03-27T06:02:03.773Z,1006.61
2019-03-27T06:03:03.761Z,1006.69
2019-03-27T06:04:10.135Z,1006.72
2019-03-27T06:05:03.735Z,1006.64
2019-03-27T06:06:03.724Z,1006.69
2019-03-27T06:07:03.741Z,1006.66
2019-03-27T06:08:03.696Z,1006.67
2019-03-27T06:09:03.695Z,1006.66
2019-03-27T06:10:03.680Z,1006.66
2019-03-27T06:11:03.665Z,1006.64
2019-03-27T06:12:03.656Z,1006.68
2019-03-27T06:13:03.654Z,1006.64
2019-03-27T06:14:03.653Z,1006.70
2019-03-27T06:15:03.621Z,1006.65
2019-03-27T06:16:03.606Z,1006.69
2019-03-27T06:17:03.593Z,1006.65
2019-03-27T06:18:13.002Z,1006.61
2019-03-27T06:19:04.609Z,1006.67
2019-03-27T06:20:03.560Z,1006.61
2019-03-27T06:21:03.547Z,1006.65
2019-03-27T06:22:03.541Z,1006.70
2019-03-27T06:23:03.530Z,1006.69
2019-03-27T06:24:03.515Z,1006.71
2019-03-27T06:25:03.512Z,1006.75
2019-03-27T06:26:03.495Z,1006.77
2019-03-27T06:27:03.482Z,1006.77
2019-03-27T06:28:03.467Z,1006.77
2019-03-27T06:29:03.460Z,1006.78
2019-03-27T06:30:03.485Z,1006.82
2019-03-27T06:31:03.441Z,1006.85
2019-03-27T06:32:03.424Z,1006.81
2019-03-27T06:33:03.415Z,1006.92
2019-03-27T06:34:03.400Z,1006.83
2019-03-27T06:35:03.393Z,1006.80
2019-03-27T06:36:09.573Z,1006.83
2019-03-27T06:37:03.371Z,1006.84
2019-03-27T06:38:03.361Z,1006.89
2019-03-27T06:39:03.344Z,1006.89
2019-03-27T06:40:03.332Z,1006.90
2019-03-27T06:41:03.364Z,1006.92
2019-03-27T06:42:03.330Z,1007.00
2019-03-27T06:43:03.305Z,1007.00
2019-03-27T06:44:03.291Z,1006.97
2019-03-27T06:45:03.280Z,1007.00
2019-03-27T06:46:03.266Z,1006.95
2019-03-27T06:47:03.297Z,1007.05
2019-03-27T06:48:03.244Z,1006.98
2019-03-27T06:49:03.235Z,1007.06
2019-03-27T06:50:03.219Z,1007.05
2019-03-27T06:51:03.212Z,1006.96
2019-03-27T06:52:03.195Z,1006.96
2019-03-27T06:53:03.203Z,1007.05
2019-03-27T06:54:03.176Z,1007.01
2019-03-27T06:55:03.166Z,1007.04
2019-03-27T06:56:03.158Z,1007.10
2019-03-27T06:57:03.138Z,1007.20
2019-03-27T06:58:03.171Z,1007.10
2019-03-27T06:59:03.122Z,1007.14
2019-03-27T07:00:03.110Z,1007.05
2019-03-27T07:01:03.093Z,1007.12
2019-03-27T07:02:03.092Z,1007.21
2019-03-27T07:03:03.075Z,1007.08
2019-03-27T07:04:10.560Z,1007.07
2019-03-27T07:05:04.048Z,1007.06
2019-03-27T07:06:03.042Z,1007.15
2019-03-27T07:07:03.045Z,1007.08
2019-03-27T07:08:09.106Z,1007.05
2019-03-27T07:09:03.023Z,1007.04
2019-03-27T07:10:02.996Z,1007.07
2019-03-27T07:11:02.977Z,1007.04
2019-03-27T07:12:02.974Z,1007.06
2019-03-27T07:13:02.964Z,1007.03
2019-03-27T07:14:02.990Z,1007.06
2019-03-27T07:15:02.941Z,1007.09
2019-03-27T07:16:02.934Z,1007.05
2019-03-27T07:17:02.915Z,1007.04
2019-03-27T07:18:02.898Z,1007.06
2019-03-27T07:19:02.899Z,1007.03
2019-03-27T07:20:02.907Z,1007.02
2019-03-27T07:21:02.870Z,1007.07
2019-03-27T07:22:02.856Z,1007.02
2019-03-27T07:23:02.845Z,1007.06
2019-03-27T07:24:02.830Z,1007.15
2019-03-27T07:25:02.817Z,1007.06
2019-03-27T07:26:02.827Z,1007.12
2019-03-27T07:27:02.798Z,1007.14
2019-03-27T07:28:02.792Z,1007.21
2019-03-27T07:29:02.776Z,1007.19
2019-03-27T07:30:02.773Z,1007.22
2019-03-27T07:31:02.774Z,1007.23
2019-03-27T07:32:02.750Z,1007.22
2019-03-27T07:33:02.728Z,1007.22
2019-03-27T07:34:02.721Z,1007.26
2019-03-27T07:35:02.710Z,1007.22
2019-03-27T07:36:02.699Z,1007.23
2019-03-27T07:37:02.700Z,1007.16
2019-03-27T07:38:02.670Z,1007.22
2019-03-27T07:39:10.858Z,1007.23
2019-03-27T07:41:11.828Z,1007.21
2019-03-27T07:42:11.832Z,1007.28
2019-03-27T07:43:11.797Z,1007.26
2019-03-27T07:44:11.798Z,1007.27
2019-03-27T07:45:11.775Z,1007.22
2019-03-27T07:46:11.765Z,1007.30
2019-03-27T07:47:11.753Z,1007.27
2019-03-27T07:48:11.782Z,1007.28
2019-03-27T07:49:11.734Z,1007.28
2019-03-27T07:50:11.719Z,1007.30
2019-03-27T07:51:11.709Z,1007.30
2019-03-27T07:52:11.700Z,1007.33
2019-03-27T07:53:11.688Z,1007.32
2019-03-27T07:54:11.677Z,1007.39
2019-03-27T07:55:19.258Z,1007.36
2019-03-27T07:56:12.657Z,1007.35
2019-03-27T07:57:11.639Z,1007.40
2019-03-27T07:58:11.637Z,1007.36
2019-03-27T07:59:11.635Z,1007.37
2019-03-27T08:00:11.603Z,1007.38
2019-03-27T08:01:11.603Z,1007.39
2019-03-27T08:02:11.581Z,1007.43
2019-03-27T08:03:11.573Z,1007.37
2019-03-27T08:04:14.207Z,1007.37
2019-03-27T08:05:11.567Z,1007.42
2019-03-27T08:06:11.538Z,1007.42
2019-03-27T08:07:11.615Z,1007.36
2019-03-27T08:08:11.516Z,1007.42
2019-03-27T08:09:11.501Z,1007.39
2019-03-27T08:10:11.485Z,1007.39
2019-03-27T08:11:11.483Z,1007.40
2019-03-27T08:12:17.551Z,1007.42
2019-03-27T08:13:11.455Z,1007.45
2019-03-27T08:14:11.447Z,1007.49
2019-03-27T08:15:11.469Z,1007.41
2019-03-27T08:16:11.416Z,1007.43
2019-03-27T08:17:11.416Z,1007.43
2019-03-27T08:18:11.402Z,1007.43
2019-03-27T08:19:11.396Z,1007.42
2019-03-27T08:20:11.429Z,1007.38
2019-03-27T08:21:11.399Z,1007.39
2019-03-27T08:22:11.353Z,1007.42
2019-03-27T08:23:11.342Z,1007.45
2019-03-27T08:24:11.322Z,1007.48
2019-03-27T08:25:11.317Z,1007.41
2019-03-27T08:26:11.299Z,1007.48
2019-03-27T08:27:14.456Z,1007.50
2019-03-27T08:28:11.280Z,1007.48
2019-03-27T08:29:11.277Z,1007.44
2019-03-27T08:30:11.271Z,1007.51
2019-03-27T08:31:11.240Z,1007.43
2019-03-27T08:32:11.240Z,1007.55
2019-03-27T08:33:11.226Z,1007.57
2019-03-27T08:34:11.215Z,1007.48
2019-03-27T08:35:11.201Z,1007.57
2019-03-27T08:36:11.188Z,1007.56
2019-03-27T08:37:11.221Z,1007.61
2019-03-27T08:38:11.159Z,1007.58
2019-03-27T08:39:11.157Z,1007.51
2019-03-27T08:40:11.145Z,1007.55
2019-03-27T08:41:11.129Z,1007.53
2019-03-27T08:42:11.118Z,1007.57
2019-03-27T08:43:21.121Z,1007.58
2019-03-27T08:45:20.008Z,1007.56
2019-03-27T08:46:19.964Z,1007.54
2019-03-27T08:47:19.952Z,1007.59
2019-03-27T08:48:19.941Z,1007.59
2019-03-27T08:49:22.303Z,1007.56
2019-03-27T08:50:19.952Z,1007.59
2019-03-27T08:51:19.917Z,1007.63
2019-03-27T08:52:19.894Z,1007.68
2019-03-27T08:53:19.875Z,1007.76
2019-03-27T08:54:19.869Z,1007.64
2019-03-27T08:55:19.856Z,1007.67
2019-03-27T08:56:19.845Z,1007.64
2019-03-27T08:57:19.849Z,1007.66
2019-03-27T08:58:19.820Z,1007.71
2019-03-27T08:59:19.806Z,1007.71
2019-03-27T09:00:21.350Z,1007.69
2019-03-27T09:01:19.789Z,1007.84
2019-03-27T09:02:19.810Z,1007.66
2019-03-27T09:03:19.764Z,1007.77
2019-03-27T09:04:19.753Z,1007.72
2019-03-27T09:05:19.745Z,1007.86
2019-03-27T09:06:32.777Z,1007.74
2019-03-27T09:07:20.757Z,1007.80
2019-03-27T09:08:19.710Z,1007.77
2019-03-27T09:09:19.701Z,1007.76
2019-03-27T09:10:19.686Z,1007.80
2019-03-27T09:11:19.675Z,1007.76
2019-03-27T09:12:19.662Z,1007.83
2019-03-27T09:13:19.672Z,1007.83
2019-03-27T09:14:19.639Z,1007.76
2019-03-27T09:15:19.625Z,1007.92
2019-03-27T09:16:25.998Z,1007.85
2019-03-27T09:17:19.608Z,1007.91
2019-03-27T09:18:19.645Z,1007.83
2019-03-27T09:19:19.583Z,1007.82
2019-03-27T09:20:19.567Z,1007.86
2019-03-27T09:21:19.641Z,1007.83
2019-03-27T09:22:19.550Z,1007.93
2019-03-27T09:23:19.540Z,1007.92
2019-03-27T09:24:19.567Z,1007.96
2019-03-27T09:25:19.511Z,1007.90
2019-03-27T09:26:19.496Z,1008.00
2019-03-27T09:27:19.485Z,1007.90
2019-03-27T09:28:19.482Z,1007.93
2019-03-27T09:29:19.462Z,1007.98
2019-03-27T09:30:19.460Z,1008.08
2019-03-27T09:31:19.445Z,1008.00
2019-03-27T09:32:19.429Z,1008.01
2019-03-27T09:33:19.421Z,1007.98
2019-03-27T09:34:19.405Z,1007.99
2019-03-27T09:35:19.408Z,1007.96
2019-03-27T09:36:19.384Z,1008.01
2019-03-27T09:37:19.375Z,1007.96
2019-03-27T09:38:19.363Z,1008.02
2019-03-27T09:39:19.350Z,1007.96
2019-03-27T09:40:19.376Z,1007.99
2019-03-27T09:41:21.472Z,1007.95
2019-03-27T09:42:19.316Z,1007.95
2019-03-27T09:43:19.307Z,1008.04
2019-03-27T09:44:19.293Z,1008.02
2019-03-27T09:45:19.283Z,1008.05
2019-03-27T09:46:19.296Z,1008.00
2019-03-27T09:47:19.255Z,1008.02
2019-03-27T09:48:25.350Z,1008.07
2019-03-27T09:49:19.268Z,1008.07
2019-03-27T09:50:19.226Z,1008.06
2019-03-27T09:51:19.250Z,1008.07
2019-03-27T09:52:19.203Z,1008.02
2019-03-27T09:53:19.189Z,1007.99
2019-03-27T09:54:19.178Z,1008.06
2019-03-27T09:55:19.211Z,1008.03
2019-03-27T09:56:19.647Z,1008.00
2019-03-27T09:57:19.160Z,1008.09
2019-03-27T09:58:19.131Z,1008.00
2019-03-27T09:59:19.121Z,1008.01
2019-03-27T10:00:19.109Z,1008.00
2019-03-27T10:01:19.099Z,1008.01
2019-03-27T10:02:19.133Z,1008.03
2019-03-27T10:03:19.077Z,1008.00
2019-03-27T10:04:19.066Z,1008.06
2019-03-27T10:05:19.051Z,1008.09
2019-03-27T10:06:19.043Z,1008.04
2019-03-27T10:07:19.033Z,1008.09
2019-03-27T10:08:19.054Z,1008.07
2019-03-27T10:09:19.012Z,1008.04
2019-03-27T10:10:18.993Z,1008.01
2019-03-27T10:11:18.985Z,1008.07
2019-03-27T10:12:18.976Z,1008.04
2019-03-27T10:13:18.965Z,1008.01
2019-03-27T10:14:18.988Z,1008.08
2019-03-27T10:15:18.937Z,1008.04
2019-03-27T10:16:18.934Z,1008.03
2019-03-27T10:17:18.915Z,1008.03
2019-03-27T10:18:18.903Z,1008.04
2019-03-27T10:19:18.887Z,1008.05
2019-03-27T10:20:25.086Z,1007.95
2019-03-27T10:21:18.868Z,1007.97
2019-03-27T10:22:18.855Z,1007.94
2019-03-27T10:23:18.845Z,1007.97
2019-03-27T10:24:18.833Z,1007.99
2019-03-27T10:25:18.828Z,1007.98
2019-03-27T10:26:18.809Z,1007.99
2019-03-27T10:27:18.802Z,1007.98
2019-03-27T10:28:18.784Z,1007.97
2019-03-27T10:29:18.779Z,1007.97
2019-03-27T10:30:18.777Z,1007.90
2019-03-27T10:31:18.756Z,1007.88
2019-03-27T10:32:18.744Z,1007.93
2019-03-27T10:33:18.730Z,1007.92
2019-03-27T10:34:18.720Z,1007.97
2019-03-27T10:35:18.713Z,1007.97
2019-03-27T10:36:18.708Z,1007.93
2019-03-27T10:37:18.686Z,1007.95
2019-03-27T10:38:18.674Z,1007.94
2019-03-27T10:39:18.658Z,1007.95
2019-03-27T10:40:18.653Z,1007.91
2019-03-27T10:41:18.681Z,1007.94
2019-03-27T10:42:18.629Z,1007.92
2019-03-27T10:43:18.612Z,1007.91
2019-03-27T10:44:18.605Z,1007.94
2019-03-27T10:45:18.593Z,1007.92
2019-03-27T10:46:18.586Z,1007.87
2019-03-27T10:47:18.583Z,1007.95
2019-03-27T10:48:18.566Z,1007.91
2019-03-27T10:49:18.546Z,1007.89
2019-03-27T10:50:18.531Z,1007.89
2019-03-27T10:51:18.522Z,1008.01
2019-03-27T10:52:24.597Z,1008.00
2019-03-27T10:53:18.508Z,1007.97
2019-03-27T10:54:18.506Z,1007.96
2019-03-27T10:55:18.482Z,1007.92
2019-03-27T10:56:18.470Z,1008.01
2019-03-27T10:57:18.480Z,1007.94
2019-03-27T10:58:18.466Z,1007.88
2019-03-27T10:59:18.453Z,1007.90
2019-03-27T11:00:18.580Z,1007.95
2019-03-27T11:01:18.409Z,1007.98
2019-03-27T11:02:18.401Z,1008.01
2019-03-27T11:03:18.389Z,1007.98
2019-03-27T11:04:18.374Z,1008.09
2019-03-27T11:05:18.378Z,1008.09
2019-03-27T11:06:18.355Z,1008.02
2019-03-27T11:07:18.338Z,1008.03
2019-03-27T11:08:18.333Z,1008.02
2019-03-27T11:09:18.329Z,1008.01
2019-03-27T11:10:18.318Z,1008.03
2019-03-27T11:11:18.317Z,1008.01
2019-03-27T11:12:18.286Z,1008.02
2019-03-27T11:13:18.267Z,1008.04
2019-03-27T11:14:18.257Z,1008.04
2019-03-27T11:15:18.253Z,1008.04
2019-03-27T11:16:18.239Z,1008.08
2019-03-27T11:17:18.233Z,1008.07
2019-03-27T11:18:18.223Z,1007.99
2019-03-27T11:19:18.204Z,1008.01
2019-03-27T11:20:30.286Z,1008.04
2019-03-27T11:21:19.222Z,1008.02
2019-03-27T11:22:18.174Z,1007.97
2019-03-27T11:23:18.161Z,1008.03
2019-03-27T11:24:24.533Z,1008.04
2019-03-27T11:25:18.136Z,1007.97
2019-03-27T11:26:18.125Z,1007.98
2019-03-27T11:27:18.155Z,1008.02
2019-03-27T11:28:18.101Z,1007.92
2019-03-27T11:29:18.090Z,1007.93
2019-03-27T11:30:18.077Z,1007.90
2019-03-27T11:31:18.066Z,1007.88
2019-03-27T11:32:18.052Z,1007.87
2019-03-27T11:33:18.061Z,1007.85
2019-03-27T11:34:18.028Z,1007.83
2019-03-27T11:35:18.017Z,1007.86
2019-03-27T11:36:18.010Z,1007.85
2019-03-27T11:37:18.019Z,1007.90
2019-03-27T11:38:17.993Z,1007.90
2019-03-27T11:39:17.977Z,1007.90
2019-03-27T11:40:17.963Z,1007.89
2019-03-27T11:41:17.956Z,1007.97
2019-03-27T11:42:17.941Z,1008.01
2019-03-27T11:43:17.967Z,1007.99
2019-03-27T11:44:17.918Z,1007.99
2019-03-27T11:45:17.986Z,1007.97
2019-03-27T11:46:17.890Z,1007.99
2019-03-27T11:47:17.885Z,1007.93
2019-03-27T11:48:17.888Z,1007.95
2019-03-27T11:49:17.924Z,1007.93
2019-03-27T11:50:17.849Z,1008.02
2019-03-27T11:51:17.838Z,1007.97
2019-03-27T11:52:17.880Z,1007.99
2019-03-27T11:53:17.814Z,1008.04
2019-03-27T11:54:17.801Z,1007.99
2019-03-27T11:55:17.798Z,1008.01
2019-03-27T11:56:23.865Z,1008.00
2019-03-27T11:57:17.765Z,1008.03
2019-03-27T11:58:17.756Z,1008.01
2019-03-27T11:59:17.742Z,1008.05
2019-03-27T12:00:17.769Z,1008.04
2019-03-27T12:01:17.724Z,1008.12
2019-03-27T12:02:17.712Z,1008.14
2019-03-27T12:03:17.697Z,1008.09
2019-03-27T12:04:17.690Z,1008.09
2019-03-27T12:05:17.673Z,1008.00
2019-03-27T12:06:17.677Z,1007.97
2019-03-27T12:07:17.649Z,1008.04